.
WxDataArchive / Data Records for 2010-06-20
2010-06-19 June 2010 2010-06-21

Data Records for Sunday, 20 June 2010

Time	Temp	Chill	HIndex	Humid	Dewpt	 Wind 	HiWind	WindDir	Rain 	Barom 
-----	----	-----	------	-----	-----	------	------	-------	-----	----- 
00:00	70.9	70.9	70.9	77	63.3	0	0	---	0.00	29.978 
00:05	70.6	70.6	70.6	78	63.4	0	0	---	0.00	29.978 
00:10	70.4	70.4	70.4	78	63.2	0	0	---	0.00	29.978 
00:15	70.1	70.1	70.1	79	63.3	0	0	---	0.00	29.976 
00:20	69.9	69.9	69.9	79	63.1	0	0	---	0.00	29.976 
00:25	69.6	69.6	69.6	80	63.1	0	0	---	0.00	29.976 
00:30	69.4	69.4	69.4	81	63.3	0	0	---	0.00	29.978 
00:35	69.3	69.3	69.3	81	63.2	0	0	---	0.00	29.978 
00:40	68.9	68.9	68.9	82	63.2	0	0	---	0.00	29.978 
00:45	68.8	68.8	68.8	82	63.1	0	0	---	0.00	29.978 
00:50	68.6	68.6	68.6	83	63.2	0	0	---	0.00	29.978 
00:55	68.4	68.4	68.4	83	63.0	0	0	---	0.00	29.978 
01:00	68.3	68.3	68.3	84	63.3	0	0	---	0.00	29.979 
01:05	68.1	68.1	68.1	84	63.1	0	0	---	0.00	29.979 
01:10	67.9	67.9	67.9	85	63.2	0	0	---	0.00	29.979 
01:15	67.8	67.8	67.8	85	63.1	0	0	---	0.00	29.978 
01:20	67.4	67.4	67.4	86	63.1	0	0	---	0.00	29.978 
01:25	67.3	67.3	67.3	86	63.0	0	0	---	0.00	29.978 
01:30	67.1	67.1	67.1	86	62.8	0	0	---	0.00	29.980 
01:35	66.9	66.9	66.9	87	62.9	0	0	---	0.00	29.980 
01:40	66.8	66.8	66.8	87	62.8	0	0	---	0.00	29.980 
01:45	66.6	66.6	66.6	87	62.6	0	0	---	0.00	29.979 
01:50	66.4	66.4	66.4	88	62.7	0	0	---	0.00	29.979 
01:55	66.3	66.3	66.3	88	62.6	0	0	---	0.00	29.979 
02:00	66.1	66.1	66.1	88	62.4	0	0	---	0.00	29.981 
02:05	66.1	66.1	66.1	88	62.4	0	0	---	0.00	29.981 
02:10	66.0	66.0	66.0	88	62.3	0	0	---	0.00	29.981 
02:15	65.8	65.8	65.8	88	62.1	0	0	---	0.00	29.980 
02:20	65.6	65.6	65.6	89	62.3	0	0	---	0.00	29.980 
02:25	65.5	65.5	65.5	89	62.2	0	0	---	0.00	29.980 
02:30	65.3	65.3	65.3	89	62.0	0	0	---	0.00	29.986 
02:35	65.3	65.3	65.3	90	62.3	0	0	---	0.00	29.986 
02:40	65.2	65.2	65.2	89	61.9	0	0	---	0.00	29.986 
02:45	65.2	65.2	65.2	89	61.9	0	0	---	0.00	29.990 
02:50	65.0	65.0	65.0	89	61.7	0	0	---	0.00	29.990 
02:55	64.8	64.8	64.8	89	61.5	0	0	---	0.00	29.990 
03:00	64.7	64.7	64.7	89	61.4	0	0	---	0.00	29.995 
03:05	64.7	64.7	64.7	89	61.4	0	0	---	0.00	29.995 
03:10	64.5	64.5	64.5	89	61.2	0	0	---	0.00	29.995 
03:15	64.3	64.3	64.3	89	61.0	0	0	---	0.00	29.995 
03:20	64.2	64.2	64.2	89	60.9	0	0	---	0.00	29.995 
03:25	64.0	64.0	64.0	89	60.7	0	0	---	0.00	29.995 
03:30	64.0	64.0	64.0	90	61.0	0	0	---	0.00	29.996 
03:35	63.9	63.9	63.9	90	60.9	0	0	---	0.00	29.996 
03:40	63.9	63.9	63.9	90	60.9	0	0	---	0.00	29.996 
03:45	63.7	63.7	63.7	90	60.7	0	0	---	0.00	29.998 
03:50	63.7	63.7	63.7	91	61.0	0	0	---	0.00	29.998 
03:55	63.7	63.7	63.7	91	61.0	0	0	---	0.00	29.998 
04:00	63.7	63.7	63.7	91	61.0	0	0	---	0.00	30.007 
04:05	63.5	63.5	63.5	91	60.8	0	0	---	0.00	30.007 
04:10	63.5	63.5	63.5	91	60.8	0	0	---	0.00	30.007 
04:15	63.4	63.4	63.4	91	60.7	0	0	---	0.00	30.010 
04:20	63.4	63.4	63.4	91	60.7	0	0	---	0.00	30.010 
04:25	63.2	63.2	63.2	91	60.5	0	0	---	0.00	30.010 
04:30	63.1	63.1	63.1	91	60.4	0	0	---	0.00	30.013 
04:35	63.1	63.1	63.1	91	60.4	0	0	---	0.00	30.013 
04:40	63.1	63.1	63.1	91	60.4	0	0	---	0.00	30.013 
04:45	62.9	62.9	62.9	91	60.2	0	0	---	0.00	30.011 
04:50	62.9	62.9	62.9	91	60.2	0	0	---	0.00	30.011 
04:55	63.1	63.1	63.1	91	60.4	0	0	---	0.00	30.011 
05:00	63.1	63.1	63.1	92	60.7	0	0	---	0.00	30.015 
05:05	63.1	63.1	63.1	92	60.7	0	0	---	0.00	30.015 
05:10	63.2	63.2	63.2	92	60.8	0	0	---	0.00	30.015 
05:15	63.2	63.2	63.2	91	60.5	0	0	---	0.00	30.021 
05:20	63.4	63.4	63.4	91	60.7	0	0	---	0.00	30.021 
05:25	63.4	63.4	63.4	91	60.7	0	0	---	0.00	30.021 
05:30	63.4	63.4	63.4	91	60.7	0	0	---	0.00	30.024 
05:35	63.4	63.4	63.4	90	60.4	0	0	---	0.00	30.024 
05:40	63.4	63.4	63.4	90	60.4	0	0	---	0.00	30.024 
05:45	63.2	63.2	63.2	90	60.2	0	0	---	0.00	30.029 
05:50	63.2	63.2	63.2	90	60.2	0	0	---	0.00	30.029 
05:55	63.2	63.2	63.2	90	60.2	0	0	---	0.00	30.029 
06:00	63.1	63.1	63.1	90	60.1	0	0	---	0.00	30.032 
06:05	63.1	63.1	63.1	90	60.1	0	0	---	0.00	30.032 
06:10	63.1	63.1	63.1	90	60.1	0	0	---	0.00	30.032 
06:15	62.9	62.9	62.9	90	59.9	0	0	---	0.00	30.036 
06:20	62.7	62.7	62.7	90	59.7	0	0	---	0.00	30.036 
06:25	62.7	62.7	62.7	91	60.0	0	0	---	0.00	30.036 
06:30	62.6	62.6	62.6	91	59.9	0	0	---	0.00	30.042 
06:35	62.6	62.6	62.6	91	59.9	0	0	---	0.00	30.042 
06:40	62.6	62.6	62.6	91	59.9	0	0	---	0.00	30.042 
06:45	62.6	62.6	62.6	91	59.9	0	0	---	0.00	30.046 
06:50	62.6	62.6	62.6	91	59.9	0	0	---	0.00	30.046 
06:55	62.7	62.7	62.7	92	60.3	0	0	---	0.00	30.046 
07:00	62.9	62.9	62.9	92	60.5	0	0	---	0.00	30.053 
07:05	63.2	63.2	63.2	92	60.8	0	0	---	0.00	30.053 
07:10	63.5	63.5	63.5	92	61.1	0	0	---	0.00	30.053 
07:15	63.9	63.9	63.9	91	61.2	0	0	---	0.00	30.056 
07:20	64.2	64.2	64.2	91	61.5	0	0	---	0.00	30.056 
07:25	64.7	64.7	64.7	90	61.7	0	0	---	0.00	30.056 
07:30	65.2	65.2	65.2	89	61.9	0	0	---	0.00	30.056 
07:35	65.8	65.8	65.8	87	61.8	0	0	---	0.00	30.056 
07:40	66.3	66.3	66.3	85	61.6	0	0	---	0.00	30.056 
07:45	66.9	66.9	66.9	84	61.9	0	0	---	0.00	30.053 
07:50	67.6	67.6	67.6	82	61.9	0	0	---	0.00	30.053 
07:55	68.1	68.1	68.1	80	61.7	0	1	270	0.00	30.053 
08:00	68.6	68.6	68.6	79	61.8	0	1	270	0.00	30.053 
08:05	69.3	69.3	69.3	77	61.8	0	1	270	0.00	30.053 
08:10	69.9	69.9	69.9	77	62.3	0	1	270	0.00	30.053 
08:15	70.4	70.4	70.4	76	62.5	0	1	270	0.00	30.056 
08:20	70.9	70.9	70.9	73	61.8	0	2	270	0.00	30.056 
08:25	71.5	71.5	71.5	74	62.8	0	2	270	0.00	30.056 
08:30	71.8	71.8	71.8	73	62.7	0	1	270	0.00	30.058 
08:35	72.3	72.3	72.3	72	62.8	0	1	270	0.00	30.058 
08:40	72.8	72.8	72.8	70	62.4	0	1	270	0.00	30.058 
08:45	73.3	73.3	73.3	70	62.9	0	1	270	0.00	30.059 
08:50	73.5	73.5	73.5	66	61.4	0	3	270	0.00	30.059 
08:55	73.9	73.9	73.9	67	62.2	0	1	270	0.00	30.059 
09:00	73.9	73.9	73.9	64	60.9	0	2	270	0.00	30.063 
09:05	73.9	73.9	73.9	66	61.8	0	2	270	0.00	30.063 
09:10	74.0	74.0	74.0	64	61.0	1	2	270	0.00	30.063 
09:15	74.0	74.0	74.0	62	60.1	1	3	292	0.00	30.068 
09:20	74.2	74.2	74.2	63	60.8	1	2	292	0.00	30.068 
09:25	74.7	74.7	74.7	63	61.2	0	3	292	0.00	30.068 
09:30	75.1	75.1	77.3	62	61.2	0	2	292	0.00	30.072 
09:35	75.3	75.3	77.5	60	60.4	0	2	292	0.00	30.072 
09:40	75.1	75.1	77.4	60	60.2	1	3	315	0.00	30.072 
09:45	75.3	75.3	77.5	60	60.4	1	4	315	0.00	30.076 
09:50	75.6	75.6	77.8	59	60.2	1	3	270	0.00	30.076 
09:55	75.6	75.6	77.8	59	60.2	1	3	315	0.00	30.076 
10:00	75.8	75.8	77.8	62	61.8	0	2	315	0.00	30.067 
10:05	76.0	76.0	78.0	58	60.1	0	2	315	0.00	30.067 
10:10	76.3	76.3	78.2	59	60.9	0	2	315	0.00	30.067 
10:15	76.5	76.5	78.4	61	62.0	0	3	315	0.00	30.067 
10:20	76.5	76.5	78.4	60	61.6	1	3	315	0.00	30.067 
10:25	76.5	76.5	78.4	59	61.1	1	4	315	0.00	30.067 
10:30	76.7	76.7	78.5	59	61.3	1	3	315	0.00	30.061 
10:35	77.0	77.0	78.8	58	61.1	1	3	315	0.00	30.061 
10:40	77.2	77.2	78.9	57	60.8	1	4	315	0.00	30.061 
10:45	77.0	77.0	78.7	56	60.1	1	3	315	0.00	30.063 
10:50	77.2	77.2	78.9	58	61.3	0	2	315	0.00	30.063 
10:55	77.4	77.4	79.1	57	61.0	1	3	315	0.00	30.063 
11:00	77.6	77.6	79.2	57	61.1	0	3	315	0.00	30.059 
11:05	77.9	77.9	79.5	58	61.9	0	2	315	0.00	30.059 
11:10	78.1	78.1	79.6	56	61.1	1	2	315	0.00	30.059 
11:15	78.3	78.3	79.8	56	61.3	1	3	315	0.00	30.061 
11:20	78.3	78.3	79.8	56	61.3	1	4	315	0.00	30.061 
11:25	78.6	78.6	80.1	57	62.1	1	3	292	0.00	30.061 
11:30	78.6	78.6	80.0	56	61.6	0	2	292	0.00	30.059 
11:35	78.6	78.6	80.1	57	62.1	0	2	292	0.00	30.059 
11:40	78.6	78.6	80.3	60	63.5	1	3	292	0.00	30.059 
11:45	78.8	78.8	80.3	57	62.3	0	2	292	0.00	30.057 
11:50	79.0	79.0	80.5	57	62.4	1	3	202	0.00	30.057 
11:55	79.2	79.2	80.7	57	62.6	1	3	270	0.00	30.057 
12:00	79.6	79.6	80.7	53	60.9	1	3	270	0.00	30.053 
12:05	79.6	79.6	80.9	55	62.0	0	3	68	0.00	30.053 
12:10	79.8	79.8	81.2	56	62.7	0	2	68	0.00	30.053 
12:15	79.8	79.8	80.9	53	61.1	1	3	292	0.00	30.057 
12:20	79.8	79.8	81.1	55	62.2	1	4	315	0.00	30.057 
12:25	80.1	80.1	81.3	54	61.9	1	4	45	0.00	30.057 
12:30	80.5	80.5	81.7	54	62.3	1	5	135	0.00	30.044 
12:35	80.5	80.5	81.6	53	61.8	1	4	292	0.00	30.044 
12:40	80.7	80.7	81.8	53	62.0	1	6	112	0.00	30.044 
12:45	81.2	81.2	82.5	54	62.9	0	1	112	0.00	30.042 
12:50	81.4	81.4	82.8	55	63.7	0	3	68	0.00	30.042 
12:55	81.6	81.6	83.1	55	63.8	1	3	90	0.00	30.042 
13:00	81.8	81.8	83.3	55	64.0	0	1	90	0.00	30.032 
13:05	81.8	81.8	83.0	53	63.0	0	2	90	0.00	30.032 
13:10	81.8	81.8	82.7	51	61.9	1	3	90	0.00	30.032 
13:15	81.6	81.6	82.8	53	62.8	1	5	112	0.00	30.027 
13:20	81.8	81.8	82.7	51	61.9	1	3	112	0.00	30.027 
13:25	81.4	81.4	82.3	51	61.5	1	3	112	0.00	30.027 
13:30	81.4	81.4	82.8	55	63.7	0	2	90	0.00	30.028 
13:35	81.8	81.8	83.0	53	63.0	1	3	90	0.00	30.028 
13:40	82.4	82.4	83.9	54	64.1	1	4	112	0.00	30.028 
13:45	82.4	82.4	83.5	52	63.0	0	3	112	0.00	30.035 
13:50	82.2	82.2	83.0	50	61.7	1	4	90	0.00	30.035 
13:55	82.2	82.2	83.1	51	62.2	0	2	90	0.00	30.035 
14:00	82.6	82.6	83.4	50	62.0	0	2	90	0.00	30.029 
14:05	82.8	82.8	84.0	52	63.3	0	2	90	0.00	30.029 
14:10	83.0	83.0	84.3	52	63.5	0	2	90	0.00	30.029 
14:15	82.4	82.4	83.5	52	63.0	0	1	112	0.00	30.040 
14:20	82.4	82.4	84.1	55	64.6	0	2	112	0.00	30.040 
14:25	82.6	82.6	84.5	56	65.3	0	2	112	0.00	30.040 
14:30	82.4	82.4	83.4	51	62.4	1	3	315	0.00	30.039 
14:35	82.4	82.4	83.5	52	63.0	0	2	315	0.00	30.039 
14:40	82.2	82.2	83.5	53	63.3	0	3	22	0.00	30.039 
14:45	82.6	82.6	84.3	55	64.8	0	2	22	0.00	30.041 
14:50	82.4	82.4	83.4	51	62.4	1	2	0	0.00	30.041 
14:55	82.2	82.2	82.8	49	61.1	1	4	90	0.00	30.041 
15:00	82.6	82.6	84.1	54	64.2	0	2	90	0.00	30.041 
15:05	82.8	82.8	83.7	50	62.2	1	3	248	0.00	30.041 
15:10	82.8	82.8	83.3	48	61.1	1	3	292	0.00	30.041 
15:15	82.8	82.8	83.5	49	61.7	0	2	292	0.00	30.042 
15:20	82.4	82.4	83.4	51	62.4	0	2	292	0.00	30.042 
15:25	82.0	82.0	83.4	54	63.7	0	1	292	0.00	30.042 
15:30	82.4	82.4	83.4	51	62.4	1	3	315	0.00	30.044 
15:35	83.0	83.0	84.3	52	63.5	0	2	315	0.00	30.044 
15:40	83.4	83.4	84.4	50	62.8	2	3	292	0.00	30.044 
15:45	83.6	83.6	84.6	50	63.0	1	3	292	0.00	30.042 
15:50	84.0	84.0	85.1	50	63.3	0	1	292	0.00	30.042 
15:55	84.1	84.1	84.6	47	61.7	1	3	292	0.00	30.042 
16:00	84.1	84.1	84.6	47	61.7	1	4	292	0.00	30.037 
16:05	84.3	84.3	85.1	48	62.4	0	2	292	0.00	30.037 
16:10	84.1	84.1	84.3	45	60.4	1	3	292	0.00	30.037 
16:15	84.0	84.0	84.7	48	62.2	0	3	315	0.00	30.031 
16:20	83.4	83.4	83.8	47	61.0	0	2	22	0.00	30.031 
16:25	83.4	83.4	84.2	49	62.2	0	2	22	0.00	30.031 
16:30	83.8	83.8	84.7	49	62.6	1	3	0	0.00	30.030 
16:35	83.6	83.6	84.8	51	63.5	1	3	338	0.00	30.030 
16:40	83.2	83.2	84.5	52	63.7	0	3	338	0.00	30.030 
16:45	82.8	82.8	83.5	49	61.7	1	4	292	0.00	30.031 
16:50	82.2	82.2	82.7	48	60.5	2	4	292	0.00	30.031 
16:55	81.8	81.8	82.4	49	60.7	1	2	315	0.00	30.031 
17:00	81.8	81.8	82.4	49	60.7	1	4	270	0.00	30.037 
17:05	82.4	82.4	83.4	51	62.4	1	3	292	0.00	30.037 
17:10	82.8	82.8	83.5	49	61.7	1	4	270	0.00	30.037 
17:15	82.6	82.6	83.6	51	62.6	0	1	270	0.00	30.029 
17:20	82.0	82.0	82.5	48	60.3	1	3	292	0.00	30.029 
17:25	81.8	81.8	82.7	51	61.9	0	1	292	0.00	30.029 
17:30	81.8	81.8	82.6	50	61.3	0	1	0	0.00	30.030 
17:35	81.8	81.8	82.8	52	62.4	0	1	0	0.00	30.030 
17:40	81.6	81.6	82.9	54	63.3	0	1	0	0.00	30.030 
17:45	81.4	81.4	82.7	54	63.1	0	2	0	0.00	30.030 
17:50	81.2	81.2	82.3	53	62.4	0	1	0	0.00	30.030 
17:55	81.2	81.2	82.5	54	62.9	0	1	338	0.00	30.030 
18:00	81.4	81.4	82.8	55	63.7	0	1	338	0.00	30.030 
18:05	81.4	81.4	82.7	54	63.1	1	2	338	0.00	30.030 
18:10	81.6	81.6	82.9	54	63.3	0	2	338	0.00	30.030 
18:15	82.0	82.0	83.4	54	63.7	0	1	338	0.00	30.029 
18:20	82.4	82.4	84.1	55	64.6	0	2	292	0.00	30.029 
18:25	82.4	82.4	83.7	53	63.5	0	2	292	0.00	30.029 
18:30	82.4	82.4	83.5	52	63.0	1	4	292	0.00	30.024 
18:35	82.2	82.2	83.5	53	63.3	0	1	292	0.00	30.024 
18:40	82.0	82.0	83.2	53	63.2	0	2	292	0.00	30.024 
18:45	82.0	82.0	83.6	55	64.2	0	3	315	0.00	30.022 
18:50	81.8	81.8	83.5	56	64.5	0	1	270	0.00	30.022 
18:55	81.6	81.6	83.2	56	64.4	0	1	270	0.00	30.022 
19:00	81.4	81.4	83.1	57	64.7	0	2	22	0.00	30.014 
19:05	81.2	81.2	82.9	57	64.5	0	1	22	0.00	30.014 
19:10	81.2	81.2	82.7	56	64.0	0	1	22	0.00	30.014 
19:15	81.2	81.2	82.3	53	62.4	0	1	22	0.00	30.007 
19:20	81.2	81.2	82.7	56	64.0	0	1	22	0.00	30.007 
19:25	81.1	81.1	82.6	56	63.9	0	1	22	0.00	30.007 
19:30	80.9	80.9	82.4	56	63.7	0	1	22	0.00	29.996 
19:35	80.5	80.5	82.1	57	63.8	0	2	22	0.00	29.996 
19:40	80.3	80.3	81.8	57	63.7	0	2	22	0.00	29.996 
19:45	80.1	80.1	81.7	58	64.0	0	1	22	0.00	30.007 
19:50	79.9	79.9	81.5	58	63.8	0	0	---	0.00	30.007 
19:55	79.8	79.8	81.4	58	63.7	0	0	---	0.00	30.007 
20:00	79.8	79.8	81.5	59	64.2	0	1	22	0.00	30.010 
20:05	79.6	79.6	81.2	58	63.5	0	0	---	0.00	30.010 
20:10	79.4	79.4	81.0	59	63.8	0	0	---	0.00	30.010 
20:15	79.0	79.0	80.6	59	63.4	0	0	---	0.00	30.011 
20:20	78.8	78.8	80.5	60	63.7	0	0	---	0.00	30.011 
20:25	78.8	78.8	80.5	60	63.7	0	0	---	0.00	30.011 
20:30	78.6	78.6	80.3	60	63.5	0	0	---	0.00	30.009 
20:35	78.6	78.6	80.3	61	64.0	0	0	---	0.00	30.009 
20:40	78.6	78.6	80.3	61	64.0	0	0	---	0.00	30.009 
20:45	78.5	78.5	80.3	62	64.4	0	0	---	0.00	30.009 
20:50	78.3	78.3	80.1	62	64.2	0	0	---	0.00	30.009 
20:55	78.1	78.1	79.9	63	64.5	0	0	---	0.00	30.009 
21:00	77.7	77.7	79.5	64	64.5	0	0	---	0.00	30.011 
21:05	77.6	77.6	79.4	64	64.4	0	0	---	0.00	30.011 
21:10	77.2	77.2	79.0	64	64.1	0	0	---	0.00	30.011 
21:15	77.0	77.0	78.8	64	63.9	0	0	---	0.00	30.016 
21:20	76.7	76.7	78.5	65	64.0	0	0	---	0.00	30.016 
21:25	76.5	76.5	78.3	65	63.8	0	0	---	0.00	30.016 
21:30	76.1	76.1	77.9	66	63.9	0	0	---	0.00	30.022 
21:35	76.0	76.0	77.8	67	64.2	0	0	---	0.00	30.022 
21:40	75.6	75.6	77.4	68	64.3	0	0	---	0.00	30.022 
21:45	75.4	75.4	77.1	69	64.5	0	0	---	0.00	30.025 
21:50	75.1	75.1	76.9	69	64.2	0	0	---	0.00	30.025 
21:55	74.9	74.9	74.9	70	64.4	0	0	---	0.00	30.025 
22:00	74.7	74.7	74.7	71	64.7	0	0	---	0.00	30.031 
22:05	74.6	74.6	74.6	71	64.6	0	0	---	0.00	30.031 
22:10	74.4	74.4	74.4	71	64.4	0	0	---	0.00	30.031 
22:15	74.2	74.2	74.2	72	64.6	0	0	---	0.00	30.025 
22:20	74.0	74.0	74.0	72	64.4	0	0	---	0.00	30.025 
22:25	73.9	73.9	73.9	72	64.3	0	0	---	0.00	30.025 
22:30	73.7	73.7	73.7	73	64.5	0	0	---	0.00	30.031 
22:35	73.5	73.5	73.5	73	64.3	0	0	---	0.00	30.031 
22:40	73.3	73.3	73.3	74	64.5	0	0	---	0.00	30.031 
22:45	73.3	73.3	73.3	76	65.3	0	0	---	0.00	30.028 
22:50	73.2	73.2	73.2	76	65.2	0	0	---	0.00	30.028 
22:55	73.0	73.0	73.0	77	65.3	0	0	---	0.00	30.028 
23:00	72.8	72.8	72.8	77	65.2	0	0	---	0.00	30.035 
23:05	72.8	72.8	72.8	77	65.2	0	0	---	0.00	30.035 
23:10	72.7	72.7	72.7	78	65.4	0	0	---	0.00	30.035 
23:15	72.5	72.5	72.5	78	65.2	0	0	---	0.00	30.027 
23:20	72.3	72.3	72.3	79	65.4	0	0	---	0.00	30.027 
23:25	72.1	72.1	72.1	80	65.6	0	0	---	0.00	30.027 
23:30	72.1	72.1	72.1	80	65.6	0	0	---	0.00	30.023 
23:35	72.0	72.0	72.0	81	65.8	0	0	---	0.00	30.023 
23:40	71.8	71.8	71.8	81	65.6	0	0	---	0.00	30.023 
23:45	71.6	71.6	71.6	81	65.4	0	0	---	0.00	30.024 
23:50	71.5	71.5	71.5	81	65.4	0	0	---	0.00	30.024 
23:55	71.1	71.1	71.1	82	65.3	0	0	---	0.00	30.024 

CoCoRaHS
IN-AL-39
A2 Web Hosting
Creative Commons License
GoDaddy
search engine by freefind advanced

loaded 2018-11-12 19:28:47 • last modified 2010-11-18 10:43:29
Privacy PolicyDisclaimer
• wx.awcolley.com is powered by PmWiki v.2002016 •
• all content (unless otherwise noted) © 2018 A W Colley